Crookston, MN

4:55 AM CDT on September 24, 2017 (GMT -0500)
Crookston Municipal-Kirkwood

Weather History for KCKN - May, 2013

Change the Weather History Date:

Tuesday, May 14, 2013

  Actual Average Record
Temperature  
Mean Temperature 65 °F -  
Max Temperature 80 °F 60 °F 84 °F (2012)
Min Temperature 48 °F 39 °F 23 °F (2016)
Growing Degree Days 15 (Base 50)    
Moisture  
Dew Point 45 °F    
Average Humidity 52    
Maximum Humidity 88    
Minimum Humidity 26    
Precipitation  
Precipitation 0.08 in - - ()
Sea Level Pressure  
Sea Level Pressure 29.59 in    
Wind  
Wind Speed 13 mph (West)    
Max Wind Speed 38 mph    
Max Gust Speed 51 mph    
Visibility 10 miles    
Events Rain    
Averages and records for this station are not official NWS values.
T = Trace of Precipitation, MM = Missing Value Source: NWS Daily Summary

Daily Weather History Graph

Daily Weather History Graph

Search for Another Location

Airport or City:

Trip Planner

Search our weather history database for the weather conditions in past years. The results will help you decide how hot, cold, wet, or windy it might be!

Date:

Astronomy

May. 14, 2013 Rise Set
Actual Time 5:49 AM CDT 8:57 PM CDT
Civil Twilight 5:12 AM CDT 9:34 PM CDT
Nautical Twilight 4:24 AM CDT 10:22 PM CDT
Astronomical Twilight 3:25 AM CDT 11:22 PM CDT
Moon 9:30 AM CDT (5/14) 12:05 AM CDT (5/14)
Length of Visible Light 16h 21m
Length of Day
15h 08m
Waxing Crescent, 19% of the Moon is Illuminated
May 14
Waxing Crescent
May 17
First Quarter
May 24
Full
May 31
Last Quarter
Jun 8
New

Hourly Weather History & Observations

Time (CDT) Temp. Heat Index Dew Point Humidity Pressure Visibility Wind Dir Wind Speed Gust Speed Precip Events Conditions
12:14 AM 55.4 °F - 33.8 °F 44% 29.62 in 10.0 mi South 4.6 mph - N/A   Clear
12:35 AM 53.6 °F - 33.8 °F 47% 29.62 in 10.0 mi South 5.8 mph - N/A   Clear
12:55 AM 53.6 °F - 33.8 °F 47% 29.61 in 10.0 mi South 4.6 mph - N/A   Clear
1:14 AM 53.6 °F - 33.8 °F 47% 29.61 in 10.0 mi SSE 5.8 mph - N/A   Clear
1:35 AM 53.6 °F - 33.8 °F 47% 29.60 in 10.0 mi SSE 8.1 mph - N/A   Clear
1:54 AM 51.8 °F - 33.8 °F 50% 29.60 in 10.0 mi South 8.1 mph - N/A   Clear
2:14 AM 51.8 °F - 33.8 °F 50% 29.59 in 10.0 mi South 8.1 mph - N/A   Clear
2:35 AM 53.6 °F - 33.8 °F 47% 29.59 in 10.0 mi South 8.1 mph - N/A   Clear
2:54 AM 50.0 °F - 33.8 °F 54% 29.59 in 10.0 mi South 8.1 mph - N/A   Clear
3:14 AM 51.8 °F - 35.6 °F 54% 29.57 in 10.0 mi South 8.1 mph - N/A   Clear
3:35 AM 53.6 °F - 35.6 °F 51% 29.56 in 10.0 mi South 9.2 mph - N/A   Clear
3:54 AM 55.4 °F - 35.6 °F 47% 29.54 in 10.0 mi South 10.4 mph - N/A   Clear
4:14 AM 59.0 °F - 35.6 °F 42% 29.54 in 10.0 mi South 11.5 mph - N/A   Clear
4:35 AM 60.8 °F - 35.6 °F 39% 29.55 in 10.0 mi SSW 11.5 mph - N/A   Clear
4:54 AM 60.8 °F - 35.6 °F 39% 29.56 in 10.0 mi SSW 8.1 mph - N/A   Scattered Clouds
5:14 AM 60.8 °F - 37.4 °F 42% 29.56 in 10.0 mi Calm Calm - N/A Rain Light Rain
5:35 AM 60.8 °F - 39.2 °F 45% - 10.0 mi Calm Calm - N/A   Mostly Cloudy
5:54 AM 55.4 °F - 42.8 °F 63% 29.57 in 10.0 mi NE 6.9 mph - N/A Rain Light Rain
6:14 AM 57.2 °F - 42.8 °F 59% 29.60 in 10.0 mi NNE 4.6 mph - N/A Rain Light Rain
6:35 AM 55.4 °F - 46.4 °F 72% 29.69 in 10.0 mi NW 11.5 mph - 0.01 in Rain Light Rain
6:55 AM 53.6 °F - 46.4 °F 77% 29.70 in 10.0 mi NW 10.4 mph - 0.03 in Rain Rain
7:15 AM 55.4 °F - 50.0 °F 82% 29.68 in 10.0 mi Calm Calm - 0.04 in Rain Light Rain
7:34 AM 55.4 °F - 51.8 °F 88% 29.59 in 10.0 mi SE 13.8 mph - 0.05 in   Scattered Clouds
7:55 AM 55.4 °F - 51.8 °F 88% 29.55 in 10.0 mi SE 13.8 mph - N/A   Clear
8:14 AM 57.2 °F - 51.8 °F 82% 29.55 in 10.0 mi East 8.1 mph - N/A   Clear
8:34 AM 60.8 °F - 53.6 °F 77% 29.54 in 10.0 mi ESE 9.2 mph - N/A   Clear
8:55 AM 62.6 °F - 53.6 °F 72% 29.52 in 10.0 mi East 11.5 mph - N/A   Clear
9:14 AM 62.6 °F - 53.6 °F 72% 29.52 in 10.0 mi East 11.5 mph - N/A   Clear
9:34 AM 64.4 °F - 53.6 °F 68% 29.51 in 10.0 mi ESE 10.4 mph - N/A   Clear
9:55 AM 68.0 °F - 55.4 °F 64% 29.50 in 10.0 mi SE 13.8 mph - N/A   Clear
10:14 AM 69.8 °F - 53.6 °F 56% 29.50 in 10.0 mi SSE 15.0 mph - N/A   Clear
10:34 AM 71.6 °F - 53.6 °F 53% 29.49 in 10.0 mi South 16.1 mph - N/A   Clear
10:55 AM 73.4 °F - 55.4 °F 53% 29.49 in 10.0 mi South 17.3 mph 25.3 mph N/A   Clear
11:14 AM 73.4 °F - 55.4 °F 53% 29.50 in 10.0 mi SW 18.4 mph - N/A   Clear
11:34 AM 75.2 °F - 55.4 °F 50% 29.50 in 10.0 mi SW 21.9 mph 25.3 mph N/A   Clear
11:55 AM 77.0 °F - 55.4 °F 47% 29.51 in 10.0 mi WSW 21.9 mph 28.8 mph N/A   Clear
12:14 PM 78.8 °F - 55.4 °F 44% 29.51 in 10.0 mi WSW 21.9 mph 28.8 mph N/A   Clear
12:34 PM 78.8 °F - 53.6 °F 42% 29.50 in 10.0 mi WSW 19.6 mph 32.2 mph N/A   Clear
12:55 PM 78.8 °F - 55.4 °F 44% 29.49 in 10.0 mi West 24.2 mph 35.7 mph N/A   Scattered Clouds
1:14 PM 80.6 °F 80.5 °F 55.4 °F 42% 29.48 in 10.0 mi West 25.3 mph 34.5 mph N/A   Scattered Clouds
1:34 PM 80.6 °F 80.5 °F 55.4 °F 42% 29.49 in 10.0 mi WNW 35.7 mph 44.9 mph N/A   Scattered Clouds
1:55 PM 78.8 °F - 51.8 °F 39% 29.50 in 10.0 mi WNW 29.9 mph 41.4 mph N/A   Scattered Clouds
2:14 PM 78.8 °F - 44.6 °F 30% 29.50 in 10.0 mi West 34.5 mph 41.4 mph N/A   Clear
2:34 PM 78.8 °F - 44.6 °F 30% 29.50 in 10.0 mi West 31.1 mph 40.3 mph N/A   Clear
2:55 PM 78.8 °F - 42.8 °F 28% 29.51 in 10.0 mi WNW 34.5 mph 43.7 mph N/A   Clear
3:14 PM 78.8 °F - 41.0 °F 26% 29.51 in 10.0 mi WNW 35.7 mph 42.6 mph N/A   Clear
3:35 PM 78.8 °F - 42.8 °F 28% 29.51 in 10.0 mi WNW 38.0 mph 47.2 mph N/A   Clear
3:55 PM 77.0 °F - 44.6 °F 32% 29.53 in 10.0 mi WNW 38.0 mph 48.3 mph N/A   Scattered Clouds
4:14 PM 75.2 °F - 44.6 °F 34% 29.54 in 10.0 mi WNW 36.8 mph 44.9 mph N/A   Scattered Clouds
4:35 PM 75.2 °F - 44.6 °F 34% 29.55 in 10.0 mi WNW 32.2 mph 48.3 mph N/A   Scattered Clouds
4:54 PM 71.6 °F - 44.6 °F 38% 29.55 in 10.0 mi WNW 35.7 mph 43.7 mph N/A   Scattered Clouds
5:14 PM 73.4 °F - 44.6 °F 36% 29.56 in 10.0 mi WNW 31.1 mph 42.6 mph N/A   Scattered Clouds
5:35 PM 71.6 °F - 44.6 °F 38% 29.57 in 10.0 mi WNW 33.4 mph 41.4 mph N/A   Mostly Cloudy
5:54 PM 71.6 °F - 46.4 °F 41% 29.57 in 10.0 mi WNW 32.2 mph 39.1 mph N/A   Scattered Clouds
6:14 PM 71.6 °F - 46.4 °F 41% 29.57 in 10.0 mi WNW 29.9 mph 39.1 mph N/A   Scattered Clouds
6:35 PM 68.0 °F - 48.2 °F 49% 29.59 in 7.0 mi NNW 28.8 mph 50.6 mph N/A   Scattered Clouds
6:54 PM 68.0 °F - 46.4 °F 46% 29.61 in 7.0 mi NNW 33.4 mph 43.7 mph N/A   Mostly Cloudy
7:14 PM 66.2 °F - 44.6 °F 46% 29.63 in 4.0 mi NNW 28.8 mph 41.4 mph N/A   Haze
7:35 PM 66.2 °F - 44.6 °F 46% 29.64 in 10.0 mi NNW 29.9 mph 40.3 mph N/A   Clear
7:54 PM 64.4 °F - 44.6 °F 49% 29.66 in 10.0 mi NNW 26.5 mph 29.9 mph N/A   Clear
8:14 PM 64.4 °F - 42.8 °F 45% 29.67 in 10.0 mi NNW 27.6 mph 38.0 mph N/A   Clear
8:35 PM 62.6 °F - 42.8 °F 48% 29.69 in 10.0 mi NNW 23.0 mph 29.9 mph N/A   Clear
8:54 PM 62.6 °F - 42.8 °F 48% 29.70 in 10.0 mi North 23.0 mph 31.1 mph N/A   Clear
9:14 PM 60.8 °F - 44.6 °F 55% 29.71 in 10.0 mi North 18.4 mph 25.3 mph N/A   Clear
9:35 PM 60.8 °F - 44.6 °F 55% 29.73 in 10.0 mi North 13.8 mph - N/A   Clear
9:54 PM 57.2 °F - 44.6 °F 63% 29.73 in 10.0 mi North 11.5 mph - N/A   Clear
10:14 PM 55.4 °F - 42.8 °F 63% 29.74 in 10.0 mi North 6.9 mph - N/A   Clear
10:35 PM 51.8 °F - 42.8 °F 71% 29.75 in 10.0 mi North 6.9 mph - N/A   Clear
10:54 PM 51.8 °F - 42.8 °F 71% 29.75 in 10.0 mi NNW 4.6 mph - N/A   Clear
11:14 PM 51.8 °F - 41.0 °F 67% 29.76 in 10.0 mi Calm Calm - N/A   Clear
11:35 PM 51.8 °F - 41.0 °F 67% 29.76 in 10.0 mi WNW 3.5 mph - N/A   Clear
11:54 PM 48.2 °F - 39.2 °F 71% 29.76 in 10.0 mi West 5.8 mph - N/A   Clear